createdAt,value
2023-04-27T00:00:20.816Z,9.08
2023-04-27T00:01:23.167Z,9.03
2023-04-27T00:02:25.554Z,8.99
2023-04-27T00:03:28.135Z,8.94
2023-04-27T00:04:30.947Z,8.92
2023-04-27T00:05:35.705Z,8.93
2023-04-27T00:06:38.068Z,8.95
2023-04-27T00:07:40.582Z,8.96
2023-04-27T00:08:42.933Z,8.97
2023-04-27T00:09:45.359Z,8.98
2023-04-27T00:10:47.796Z,8.99
2023-04-27T00:11:50.009Z,8.97
2023-04-27T00:12:52.191Z,9.00
2023-04-27T00:13:54.405Z,9.04
2023-04-27T00:14:57.451Z,9.05
2023-04-27T00:16:00.802Z,9.02
2023-04-27T00:17:03.287Z,9.00
2023-04-27T00:18:06.032Z,8.96
2023-04-27T00:19:08.523Z,8.95
2023-04-27T00:20:12.743Z,8.94
2023-04-27T00:21:15.113Z,8.91
2023-04-27T00:22:18.096Z,8.90
2023-04-27T00:23:21.445Z,8.91
2023-04-27T00:24:23.458Z,8.91
2023-04-27T00:25:25.993Z,8.93
2023-04-27T00:26:28.503Z,8.93
2023-04-27T00:27:31.147Z,8.94
2023-04-27T00:28:33.403Z,8.94
2023-04-27T00:29:35.450Z,8.95
2023-04-27T00:30:38.071Z,8.92
2023-04-27T00:31:42.148Z,8.91
2023-04-27T00:32:44.870Z,8.92
2023-04-27T00:33:47.488Z,8.93
2023-04-27T00:34:51.528Z,8.96
2023-04-27T00:35:53.850Z,8.96
2023-04-27T00:36:58.781Z,8.99
2023-04-27T00:38:01.057Z,9.00
2023-04-27T00:39:04.578Z,9.01
2023-04-27T00:40:10.828Z,9.00
2023-04-27T00:41:13.129Z,9.00
2023-04-27T00:42:15.137Z,8.97
2023-04-27T00:43:17.222Z,8.96
2023-04-27T00:45:36.968Z,8.98
2023-04-27T00:46:39.403Z,8.85
2023-04-27T00:47:42.063Z,8.82
2023-04-27T00:48:44.620Z,8.79
2023-04-27T00:49:46.871Z,8.75
2023-04-27T00:50:49.379Z,8.71
2023-04-27T00:51:51.419Z,8.69
2023-04-27T00:52:53.646Z,8.66
2023-04-27T00:53:59.906Z,8.64
2023-04-27T00:55:04.680Z,8.61
2023-04-27T00:56:07.731Z,8.57
2023-04-27T00:57:09.882Z,8.55
2023-04-27T00:58:11.956Z,8.51
2023-04-27T00:59:14.366Z,8.48
2023-04-27T01:00:17.899Z,8.44
2023-04-27T01:01:20.030Z,8.40
2023-04-27T01:02:22.355Z,8.36
2023-04-27T01:03:25.001Z,8.37
2023-04-27T01:04:28.335Z,8.37
2023-04-27T01:05:32.577Z,8.36
2023-04-27T01:06:35.358Z,8.35
2023-04-27T01:07:38.615Z,8.36
2023-04-27T01:08:40.861Z,8.38
2023-04-27T01:09:42.889Z,8.38
2023-04-27T01:10:45.349Z,8.37
2023-04-27T01:11:48.141Z,8.30
2023-04-27T01:12:50.364Z,8.29
2023-04-27T01:16:29.111Z,8.29
2023-04-27T01:17:32.255Z,8.34
2023-04-27T01:18:34.921Z,8.37
2023-04-27T01:19:37.136Z,8.37
2023-04-27T01:20:39.808Z,8.35
2023-04-27T01:21:43.911Z,8.30
2023-04-27T01:22:46.038Z,8.27
2023-04-27T01:23:48.334Z,8.23
2023-04-27T01:24:50.461Z,8.22
2023-04-27T01:25:52.363Z,8.16
2023-04-27T01:26:57.375Z,8.12
2023-04-27T01:27:59.582Z,8.08
2023-04-27T01:29:01.630Z,8.05
2023-04-27T01:30:06.845Z,8.00
2023-04-27T01:31:10.028Z,8.00
2023-04-27T01:32:12.404Z,8.01
2023-04-27T01:33:14.632Z,8.05
2023-04-27T01:34:16.931Z,8.07
2023-04-27T01:35:20.803Z,8.09
2023-04-27T01:36:23.390Z,8.07
2023-04-27T01:37:26.393Z,8.07
2023-04-27T01:38:28.659Z,8.08
2023-04-27T01:39:31.619Z,8.10
2023-04-27T01:40:34.206Z,8.10
2023-04-27T01:41:36.987Z,8.10
2023-04-27T01:42:39.175Z,8.10
2023-04-27T01:43:43.214Z,8.09
2023-04-27T01:44:46.089Z,8.09
2023-04-27T01:45:48.358Z,8.09
2023-04-27T01:46:50.930Z,8.09
2023-04-27T01:47:53.188Z,8.08
2023-04-27T01:48:55.832Z,8.04
2023-04-27T01:49:58.318Z,8.00
2023-04-27T01:51:00.799Z,7.97
2023-04-27T01:52:04.308Z,7.94
2023-04-27T01:53:08.286Z,7.95
2023-04-27T01:54:10.266Z,7.94
2023-04-27T01:55:12.349Z,7.94
2023-04-27T01:56:16.363Z,7.94
2023-04-27T01:57:18.448Z,7.95
2023-04-27T01:58:20.787Z,7.97
2023-04-27T01:59:23.777Z,7.96
2023-04-27T02:00:28.188Z,7.97
2023-04-27T02:01:30.394Z,7.98
2023-04-27T02:02:33.191Z,7.98
2023-04-27T02:03:36.650Z,7.98
2023-04-27T02:04:40.843Z,7.99
2023-04-27T02:05:43.349Z,7.99
2023-04-27T02:06:46.432Z,7.97
2023-04-27T02:07:49.582Z,7.98
2023-04-27T02:08:51.785Z,7.97
2023-04-27T02:09:54.121Z,7.97
2023-04-27T02:10:56.886Z,7.96
2023-04-27T02:11:59.133Z,7.96
2023-04-27T02:13:01.418Z,7.97
2023-04-27T02:14:03.699Z,7.97
2023-04-27T02:15:10.105Z,7.98
2023-04-27T02:16:14.787Z,8.02
2023-04-27T02:17:16.853Z,8.02
2023-04-27T02:18:18.986Z,8.03
2023-04-27T02:19:23.039Z,8.06
2023-04-27T02:20:26.581Z,8.06
2023-04-27T02:21:28.779Z,8.06
2023-04-27T02:22:35.217Z,8.02
2023-04-27T02:23:37.238Z,7.97
2023-04-27T02:24:39.515Z,7.96
2023-04-27T02:25:41.732Z,7.97
2023-04-27T02:26:45.100Z,7.95
2023-04-27T02:27:47.290Z,7.92
2023-04-27T02:28:52.064Z,7.90
2023-04-27T02:29:56.671Z,7.92
2023-04-27T02:30:59.741Z,7.92
2023-04-27T02:32:01.958Z,7.94
2023-04-27T02:33:05.266Z,7.92
2023-04-27T02:34:07.753Z,7.91
2023-04-27T02:35:09.790Z,7.88
2023-04-27T02:36:12.616Z,7.87
2023-04-27T02:37:14.819Z,7.90
2023-04-27T02:38:16.826Z,7.90
2023-04-27T02:39:18.940Z,7.90
2023-04-27T02:44:56.435Z,7.91
2023-04-27T02:46:03.803Z,7.85
2023-04-27T02:47:06.377Z,7.82
2023-04-27T02:48:08.566Z,7.79
2023-04-27T02:49:12.489Z,7.77
2023-04-27T02:50:15.568Z,7.78
2023-04-27T02:51:18.277Z,7.78
2023-04-27T02:52:20.683Z,7.77
2023-04-27T02:53:22.879Z,7.77
2023-04-27T02:54:25.131Z,7.78
2023-04-27T02:55:27.194Z,7.81
2023-04-27T02:56:30.341Z,7.83
2023-04-27T02:57:32.461Z,7.85
2023-04-27T02:58:34.819Z,7.87
2023-04-27T02:59:36.895Z,7.89
2023-04-27T03:00:39.561Z,7.87
2023-04-27T03:01:43.179Z,7.86
2023-04-27T03:02:45.639Z,7.85
2023-04-27T03:03:48.601Z,7.83
2023-04-27T03:04:53.963Z,7.84
2023-04-27T03:05:56.205Z,7.83
2023-04-27T03:06:59.290Z,7.82
2023-04-27T03:08:01.603Z,7.81
2023-04-27T03:11:39.144Z,7.78
2023-04-27T03:12:42.843Z,7.78
2023-04-27T03:13:45.236Z,7.76
2023-04-27T03:14:47.396Z,7.76
2023-04-27T03:15:49.572Z,7.73
2023-04-27T03:16:52.138Z,7.71
2023-04-27T03:17:57.232Z,7.66
2023-04-27T03:18:59.881Z,7.64
2023-04-27T03:20:05.916Z,7.64
2023-04-27T03:21:12.179Z,7.66
2023-04-27T03:22:14.877Z,7.66
2023-04-27T03:23:18.745Z,7.64
2023-04-27T03:24:21.008Z,7.64
2023-04-27T03:25:24.988Z,7.66
2023-04-27T03:26:27.706Z,7.66
2023-04-27T03:27:30.072Z,7.65
2023-04-27T03:28:32.924Z,7.60
2023-04-27T03:29:35.203Z,7.57
2023-04-27T03:30:39.629Z,7.55
2023-04-27T03:31:42.011Z,7.52
2023-04-27T03:32:47.153Z,7.49
2023-04-27T03:33:49.711Z,7.49
2023-04-27T03:34:51.998Z,7.51
2023-04-27T03:35:56.331Z,7.52
2023-04-27T03:36:58.640Z,7.51
2023-04-27T03:38:00.887Z,7.50
2023-04-27T03:39:03.596Z,7.51
2023-04-27T03:40:11.893Z,7.52
2023-04-27T03:41:14.248Z,7.56
2023-04-27T03:42:17.422Z,7.54
2023-04-27T03:43:19.994Z,7.53
2023-04-27T03:44:23.237Z,7.52
2023-04-27T03:45:25.740Z,7.53
2023-04-27T03:46:28.279Z,7.53
2023-04-27T03:47:30.990Z,7.54
2023-04-27T03:48:33.599Z,7.52
2023-04-27T03:49:37.287Z,7.52
2023-04-27T03:50:41.213Z,7.52
2023-04-27T03:51:43.250Z,7.54
2023-04-27T03:52:45.534Z,7.54
2023-04-27T03:53:47.843Z,7.52
2023-04-27T03:57:25.554Z,7.53
2023-04-27T03:58:29.701Z,7.58
2023-04-27T03:59:45.979Z,7.65
2023-04-27T04:00:49.348Z,7.68
2023-04-27T04:01:51.979Z,7.71
2023-04-27T04:02:57.578Z,7.73
2023-04-27T04:04:00.500Z,7.76
2023-04-27T04:05:03.621Z,7.77
2023-04-27T04:06:08.337Z,7.79
2023-04-27T04:07:10.774Z,7.79
2023-04-27T04:08:13.688Z,7.81
2023-04-27T04:09:16.084Z,7.81
2023-04-27T04:10:21.503Z,7.80
2023-04-27T04:11:24.837Z,7.78
2023-04-27T04:12:29.893Z,7.77
2023-04-27T04:13:32.125Z,7.73
2023-04-27T04:14:36.282Z,7.71
2023-04-27T04:15:38.374Z,7.70
2023-04-27T04:16:42.539Z,7.69
2023-04-27T04:17:45.846Z,7.65
2023-04-27T04:18:48.807Z,7.65
2023-04-27T04:19:52.877Z,7.65
2023-04-27T04:20:55.687Z,7.63
2023-04-27T04:21:58.745Z,7.62
2023-04-27T04:23:00.924Z,7.62
2023-04-27T04:24:06.787Z,7.61
2023-04-27T04:25:10.376Z,7.61
2023-04-27T04:26:13.334Z,7.61
2023-04-27T04:27:16.139Z,7.61
2023-04-27T04:28:18.540Z,7.65
2023-04-27T04:29:22.568Z,7.67
2023-04-27T04:30:25.173Z,7.70
2023-04-27T04:31:27.854Z,7.66
2023-04-27T04:32:31.843Z,7.67
2023-04-27T04:33:34.168Z,7.66
2023-04-27T04:34:36.448Z,7.67
2023-04-27T04:35:39.853Z,7.66
2023-04-27T04:36:42.150Z,7.68
2023-04-27T04:37:45.765Z,7.70
2023-04-27T04:38:48.507Z,7.67
2023-04-27T04:39:51.420Z,7.63
2023-04-27T04:40:53.995Z,7.58
2023-04-27T04:41:55.945Z,7.56
2023-04-27T04:43:01.523Z,7.55
2023-04-27T04:44:05.045Z,7.56
2023-04-27T04:45:10.381Z,7.60
2023-04-27T04:46:13.717Z,7.62
2023-04-27T04:47:16.115Z,7.61
2023-04-27T04:48:18.997Z,7.61
2023-04-27T04:49:21.891Z,7.62
2023-04-27T04:50:25.566Z,7.65
2023-04-27T04:51:27.985Z,7.69
2023-04-27T04:52:30.310Z,7.74
2023-04-27T04:53:33.346Z,7.76
2023-04-27T04:54:35.558Z,7.78
2023-04-27T04:55:37.702Z,7.79
2023-04-27T04:56:40.599Z,7.83
2023-04-27T04:57:43.379Z,7.85
2023-04-27T04:58:46.319Z,7.84
2023-04-27T04:59:48.667Z,7.82
2023-04-27T05:00:51.330Z,7.82
2023-04-27T05:01:53.667Z,7.80
2023-04-27T05:02:56.126Z,7.78
2023-04-27T05:04:01.435Z,7.79
2023-04-27T05:05:07.211Z,7.80
2023-04-27T05:06:10.035Z,7.78
2023-04-27T05:07:14.743Z,7.74
2023-04-27T05:08:16.385Z,7.71
2023-04-27T05:09:21.684Z,7.69
2023-04-27T05:10:24.011Z,7.68
2023-04-27T05:11:26.075Z,7.70
2023-04-27T05:12:28.365Z,7.71
2023-04-27T05:13:30.436Z,7.70
2023-04-27T05:14:33.348Z,7.69
2023-04-27T05:15:37.069Z,7.66
2023-04-27T05:16:39.913Z,7.68
2023-04-27T05:17:42.701Z,7.65
2023-04-27T05:18:45.113Z,7.65
2023-04-27T05:19:48.149Z,7.63
2023-04-27T05:20:51.502Z,7.62
2023-04-27T05:21:54.693Z,7.61
2023-04-27T05:22:56.956Z,7.60
2023-04-27T05:23:59.119Z,7.57
2023-04-27T05:25:02.853Z,7.55
2023-04-27T05:27:21.780Z,7.64
2023-04-27T05:28:24.157Z,7.54
2023-04-27T05:29:26.417Z,7.54
2023-04-27T05:30:30.969Z,7.56
2023-04-27T05:31:33.171Z,7.56
2023-04-27T05:32:39.062Z,7.58
2023-04-27T05:33:41.351Z,7.60
2023-04-27T05:34:43.724Z,7.61
2023-04-27T05:35:47.225Z,7.63
2023-04-27T05:36:49.899Z,7.65
2023-04-27T05:37:52.356Z,7.70
2023-04-27T05:38:56.423Z,7.72
2023-04-27T05:39:58.583Z,7.77
2023-04-27T05:41:02.881Z,7.82
2023-04-27T05:42:06.450Z,7.86
2023-04-27T05:43:08.753Z,7.88
2023-04-27T05:44:10.925Z,7.90
2023-04-27T05:45:13.314Z,7.91
2023-04-27T05:46:17.542Z,7.91
2023-04-27T05:47:20.008Z,7.91
2023-04-27T05:48:22.075Z,7.87
2023-04-27T05:49:24.299Z,7.85
2023-04-27T05:50:27.646Z,7.83
2023-04-27T05:51:30.542Z,7.80
2023-04-27T05:52:33.317Z,7.80
2023-04-27T05:53:35.492Z,7.81
2023-04-27T05:54:37.791Z,7.79
2023-04-27T05:55:39.950Z,7.76
2023-04-27T05:56:43.510Z,7.77
2023-04-27T05:57:47.669Z,7.76
2023-04-27T05:58:49.946Z,7.77
2023-04-27T05:59:52.052Z,7.80
2023-04-27T06:00:54.734Z,7.82
2023-04-27T06:01:59.347Z,7.85
2023-04-27T06:03:01.814Z,7.86
2023-04-27T06:04:05.787Z,7.85
2023-04-27T06:05:09.600Z,7.89
2023-04-27T06:06:14.280Z,7.92
2023-04-27T06:07:17.170Z,7.95
2023-04-27T06:08:19.375Z,7.97
2023-04-27T06:09:21.754Z,8.01
2023-04-27T06:10:24.711Z,8.04
2023-04-27T06:11:27.197Z,8.03
2023-04-27T06:12:30.182Z,8.02
2023-04-27T06:13:32.600Z,8.04
2023-04-27T06:14:35.561Z,8.07
2023-04-27T06:15:37.896Z,8.07
2023-04-27T06:16:40.554Z,8.05
2023-04-27T06:17:44.145Z,8.05
2023-04-27T06:18:50.074Z,8.05
2023-04-27T06:19:52.341Z,8.03
2023-04-27T06:21:07.715Z,8.04
2023-04-27T06:22:22.900Z,8.07
2023-04-27T06:29:08.360Z,8.21
2023-04-27T06:30:33.576Z,8.11
2023-04-27T06:31:51.291Z,8.11
2023-04-27T06:34:21.486Z,8.34
2023-04-27T06:35:46.517Z,8.29
2023-04-27T06:54:28.497Z,8.36
2023-04-27T06:55:32.244Z,8.45
2023-04-27T06:57:15.040Z,8.43
2023-04-27T06:58:17.371Z,8.45
2023-04-27T06:59:20.311Z,8.41
2023-04-27T07:00:23.190Z,8.37
2023-04-27T07:01:25.672Z,8.31
2023-04-27T07:02:30.782Z,8.30
2023-04-27T07:03:35.239Z,8.30
2023-04-27T07:04:37.962Z,8.31
2023-04-27T07:05:41.180Z,8.33
2023-04-27T07:06:43.749Z,8.39
2023-04-27T07:07:45.963Z,8.43
2023-04-27T07:08:48.096Z,8.47
2023-04-27T07:09:50.287Z,8.45
2023-04-27T07:10:52.810Z,8.43
2023-04-27T07:11:56.741Z,8.42
2023-04-27T07:12:58.832Z,8.42
2023-04-27T07:14:01.094Z,8.42
2023-04-27T07:15:08.236Z,8.46
2023-04-27T07:16:12.226Z,8.49
2023-04-27T07:17:14.476Z,8.50
2023-04-27T07:18:16.467Z,8.49
2023-04-27T07:19:18.509Z,8.48
2023-04-27T07:20:21.169Z,8.45
2023-04-27T07:21:23.170Z,8.45
2023-04-27T07:22:25.310Z,8.48
2023-04-27T07:23:27.551Z,8.55
2023-04-27T07:24:29.836Z,8.56
2023-04-27T07:25:32.305Z,8.57
2023-04-27T07:26:34.888Z,8.59
2023-04-27T07:27:37.473Z,8.58
2023-04-27T07:28:40.128Z,8.62
2023-04-27T07:29:42.040Z,8.63
2023-04-27T07:30:44.641Z,8.65
2023-04-27T07:31:46.859Z,8.66
2023-04-27T07:32:49.201Z,8.66
2023-04-27T07:33:51.338Z,8.65
2023-04-27T07:34:58.196Z,8.70
2023-04-27T07:36:01.311Z,8.70
2023-04-27T07:37:03.735Z,8.75
2023-04-27T07:38:05.911Z,8.81
2023-04-27T07:39:08.059Z,8.86
2023-04-27T07:40:14.175Z,8.87
2023-04-27T07:41:16.363Z,8.91
2023-04-27T07:42:20.362Z,8.96
2023-04-27T07:43:22.684Z,8.95
2023-04-27T07:44:24.816Z,8.99
2023-04-27T07:45:27.798Z,9.02
2023-04-27T07:46:30.462Z,9.04
2023-04-27T07:47:32.615Z,9.08
2023-04-27T07:48:34.554Z,9.11
2023-04-27T07:49:37.070Z,9.13
2023-04-27T07:50:39.529Z,9.17
2023-04-27T07:51:41.686Z,9.25
2023-04-27T07:52:43.786Z,9.37
2023-04-27T07:53:47.750Z,9.41
2023-04-27T07:54:49.877Z,9.47
2023-04-27T07:55:53.012Z,9.50
2023-04-27T07:56:55.683Z,9.52
2023-04-27T07:57:57.820Z,9.50
2023-04-27T07:59:00.089Z,9.42
2023-04-27T08:00:05.021Z,9.39
2023-04-27T08:01:08.956Z,9.35
2023-04-27T08:02:18.383Z,9.31
2023-04-27T08:03:15.394Z,9.25
2023-04-27T08:04:18.940Z,9.22
2023-04-27T08:05:22.068Z,9.19
2023-04-27T08:06:25.810Z,9.18
2023-04-27T08:07:29.248Z,9.17
2023-04-27T08:08:31.740Z,9.16
2023-04-27T08:09:34.207Z,9.12
2023-04-27T08:10:36.634Z,9.10
2023-04-27T08:11:38.734Z,9.10
2023-04-27T08:12:40.885Z,9.07
2023-04-27T08:13:43.059Z,9.00
2023-04-27T08:14:46.130Z,8.96
2023-04-27T08:18:25.163Z,8.89
2023-04-27T08:19:27.523Z,8.91
2023-04-27T08:20:30.825Z,8.90
2023-04-27T08:21:32.918Z,8.88
2023-04-27T08:22:34.900Z,8.87
2023-04-27T08:23:37.080Z,8.87
2023-04-27T08:24:39.242Z,8.88
2023-04-27T08:25:41.490Z,8.86
2023-04-27T08:26:44.899Z,8.85
2023-04-27T08:27:47.037Z,8.87
2023-04-27T08:28:49.587Z,8.89
2023-04-27T08:29:51.782Z,8.92
2023-04-27T08:30:55.302Z,8.90
2023-04-27T08:31:59.440Z,8.87
2023-04-27T08:33:01.914Z,8.86
2023-04-27T08:34:04.453Z,8.85
2023-04-27T08:35:07.768Z,8.81
2023-04-27T08:36:10.462Z,8.82
2023-04-27T08:37:12.637Z,8.81
2023-04-27T08:38:14.728Z,8.76
2023-04-27T08:39:16.912Z,8.73
2023-04-27T08:40:20.682Z,8.69
2023-04-27T08:41:24.850Z,8.65
2023-04-27T08:42:27.037Z,8.63
2023-04-27T08:43:35.846Z,8.63
2023-04-27T08:44:41.681Z,8.64
2023-04-27T08:45:48.363Z,8.63
2023-04-27T08:46:51.120Z,8.64
2023-04-27T08:47:54.349Z,8.63
2023-04-27T08:48:56.864Z,8.63
2023-04-27T08:49:58.958Z,8.68
2023-04-27T08:51:01.390Z,8.71
2023-04-27T08:52:06.574Z,8.72
2023-04-27T08:54:27.246Z,8.76
2023-04-27T08:55:29.382Z,8.65
2023-04-27T08:56:32.010Z,8.66
2023-04-27T08:57:34.245Z,8.65
2023-04-27T08:58:37.273Z,8.66
2023-04-27T08:59:42.801Z,8.71
2023-04-27T09:00:45.473Z,8.76
2023-04-27T09:01:48.662Z,8.79
2023-04-27T09:02:51.711Z,8.82
2023-04-27T09:04:00.741Z,8.85
2023-04-27T09:05:07.377Z,8.85
2023-04-27T09:06:10.497Z,8.78
2023-04-27T09:07:17.285Z,8.76
2023-04-27T09:08:19.621Z,8.77
2023-04-27T09:10:43.231Z,8.90
2023-04-27T09:11:45.334Z,8.82
2023-04-27T09:12:55.538Z,8.77
2023-04-27T09:13:59.015Z,8.75
2023-04-27T09:15:02.338Z,8.73
2023-04-27T09:16:05.072Z,8.73
2023-04-27T09:17:07.425Z,8.76
2023-04-27T09:19:25.748Z,8.96
2023-04-27T09:20:28.116Z,8.86
2023-04-27T09:21:30.369Z,8.85
2023-04-27T09:22:36.082Z,8.83
2023-04-27T09:23:39.660Z,8.84
2023-04-27T09:24:52.681Z,8.86
2023-04-27T09:25:59.213Z,8.83
2023-04-27T09:27:01.554Z,8.84
2023-04-27T09:28:04.927Z,8.89
2023-04-27T09:29:07.195Z,8.92
2023-04-27T09:30:17.905Z,8.93
2023-04-27T09:31:20.059Z,8.94
2023-04-27T09:32:22.228Z,8.94
2023-04-27T09:33:25.433Z,8.90
2023-04-27T09:34:38.766Z,8.91
2023-04-27T09:35:41.030Z,8.93
2023-04-27T09:36:43.861Z,9.00
2023-04-27T09:37:46.030Z,9.04
2023-04-27T09:38:48.974Z,9.09
2023-04-27T09:39:51.090Z,9.14
2023-04-27T09:40:55.417Z,9.15
2023-04-27T09:41:57.769Z,9.14
2023-04-27T09:43:01.026Z,9.13
2023-04-27T09:44:03.581Z,9.15
2023-04-27T09:45:08.508Z,9.18
2023-04-27T09:46:13.820Z,9.21
2023-04-27T09:47:16.525Z,9.19
2023-04-27T09:48:18.675Z,9.16
2023-04-27T09:49:20.838Z,9.12
2023-04-27T09:50:23.521Z,9.07
2023-04-27T09:51:25.818Z,9.00
2023-04-27T09:52:28.192Z,8.93
2023-04-27T09:53:40.016Z,8.88
2023-04-27T09:54:42.533Z,8.85
2023-04-27T09:55:51.686Z,8.80
2023-04-27T09:57:06.643Z,8.76
2023-04-27T09:58:16.064Z,8.66
2023-04-27T09:59:38.561Z,8.63
2023-04-27T10:00:58.581Z,8.64
2023-04-27T10:02:07.365Z,8.68
2023-04-27T10:03:17.711Z,8.71
2023-04-27T10:04:50.085Z,8.74
2023-04-27T10:06:28.311Z,8.72
2023-04-27T10:07:31.233Z,8.67
2023-04-27T10:08:35.078Z,8.62
2023-04-27T10:10:52.618Z,8.66
2023-04-27T10:11:54.914Z,8.57
2023-04-27T10:12:59.741Z,8.59
2023-04-27T10:14:05.618Z,8.61
2023-04-27T10:15:16.564Z,8.61
2023-04-27T10:16:19.004Z,8.65
2023-04-27T10:17:35.355Z,8.70
2023-04-27T10:18:37.821Z,8.72
2023-04-27T10:19:40.270Z,8.74
2023-04-27T10:20:44.333Z,8.75
2023-04-27T10:22:00.802Z,8.72
2023-04-27T10:23:02.994Z,8.72
2023-04-27T10:24:10.174Z,8.70
2023-04-27T10:26:28.408Z,8.77
2023-04-27T10:27:34.356Z,8.68
2023-04-27T10:28:39.534Z,8.65
2023-04-27T10:29:44.344Z,8.63
2023-04-27T10:30:47.078Z,8.64
2023-04-27T10:31:49.360Z,8.64
2023-04-27T10:32:54.932Z,8.66
2023-04-27T10:34:08.088Z,8.68
2023-04-27T10:35:10.370Z,8.72
2023-04-27T10:36:15.947Z,8.70
2023-04-27T10:37:18.307Z,8.66
2023-04-27T10:38:21.946Z,8.66
2023-04-27T10:39:40.055Z,8.66
2023-04-27T10:40:33.361Z,8.69
2023-04-27T10:41:35.695Z,8.71
2023-04-27T10:42:37.847Z,8.69
2023-04-27T10:43:41.356Z,8.69
2023-04-27T10:44:47.208Z,8.65
2023-04-27T10:45:49.374Z,8.66
2023-04-27T10:46:59.030Z,8.69
2023-04-27T10:48:01.272Z,8.71
2023-04-27T10:49:04.923Z,8.72
2023-04-27T10:50:09.942Z,8.71
2023-04-27T10:51:16.700Z,8.69
2023-04-27T10:52:18.993Z,8.63
2023-04-27T10:53:21.135Z,8.58
2023-04-27T10:54:29.527Z,8.57
2023-04-27T10:55:32.454Z,8.54
2023-04-27T10:56:34.628Z,8.57
2023-04-27T10:57:45.534Z,8.62
2023-04-27T10:58:49.535Z,8.69
2023-04-27T10:59:53.604Z,8.73
2023-04-27T11:00:56.584Z,8.70
2023-04-27T11:01:58.983Z,8.69
2023-04-27T11:03:20.972Z,8.70
2023-04-27T11:04:23.253Z,8.71
2023-04-27T11:05:27.086Z,8.69
2023-04-27T11:06:30.876Z,8.69
2023-04-27T11:07:36.069Z,8.70
2023-04-27T11:08:43.441Z,8.69
2023-04-27T11:09:45.675Z,8.70
2023-04-27T11:10:49.732Z,8.74
2023-04-27T11:11:52.207Z,8.72
2023-04-27T11:12:54.418Z,8.72
2023-04-27T11:13:57.914Z,8.70
2023-04-27T11:14:59.842Z,8.73
2023-04-27T11:16:05.419Z,8.72
2023-04-27T11:17:07.643Z,8.73
2023-04-27T11:18:09.897Z,8.76
2023-04-27T11:19:12.109Z,8.79
2023-04-27T11:20:16.562Z,8.82
2023-04-27T11:21:18.766Z,8.82
2023-04-27T11:22:20.869Z,8.81
2023-04-27T11:23:28.544Z,8.82
2023-04-27T11:24:30.797Z,8.84
2023-04-27T11:25:32.778Z,8.83
2023-04-27T11:26:36.259Z,8.81
2023-04-27T11:27:40.025Z,8.79
2023-04-27T11:28:43.205Z,8.78
2023-04-27T11:29:45.421Z,8.79
2023-04-27T11:30:58.371Z,8.79
2023-04-27T11:32:01.505Z,8.77
2023-04-27T11:33:07.513Z,8.79
2023-04-27T11:34:14.058Z,8.83
2023-04-27T11:35:17.124Z,8.83
2023-04-27T11:36:22.205Z,8.78
2023-04-27T11:37:26.743Z,8.77
2023-04-27T11:38:35.249Z,8.82
2023-04-27T11:39:38.582Z,8.87
2023-04-27T11:40:41.239Z,8.88
2023-04-27T11:41:43.493Z,8.90
2023-04-27T11:42:45.517Z,8.92
2023-04-27T11:43:47.779Z,8.93
2023-04-27T11:45:02.150Z,8.98
2023-04-27T11:46:04.642Z,9.03
2023-04-27T11:47:07.014Z,9.03
2023-04-27T11:48:14.443Z,9.03
2023-04-27T11:49:16.669Z,9.03
2023-04-27T11:50:21.886Z,9.05
2023-04-27T11:51:24.287Z,9.08
2023-04-27T11:52:34.798Z,9.11
2023-04-27T11:53:39.043Z,9.07
2023-04-27T11:54:51.189Z,9.04
2023-04-27T12:00:08.626Z,8.99
2023-04-27T12:01:12.665Z,8.90
2023-04-27T12:02:15.794Z,8.89
2023-04-27T12:03:18.105Z,8.90
2023-04-27T12:04:21.051Z,8.91
2023-04-27T12:05:23.900Z,8.88
2023-04-27T12:06:32.630Z,8.87
2023-04-27T12:07:31.552Z,8.84
2023-04-27T12:08:33.570Z,8.81
2023-04-27T12:09:35.530Z,8.80
2023-04-27T12:10:38.250Z,8.78
2023-04-27T12:11:41.105Z,8.80
2023-04-27T12:12:43.554Z,8.84
2023-04-27T12:13:45.695Z,8.86
2023-04-27T12:14:49.109Z,8.88
2023-04-27T12:15:51.329Z,8.93
2023-04-27T12:16:54.166Z,8.97
2023-04-27T12:17:56.898Z,9.04
2023-04-27T12:18:59.113Z,9.03
2023-04-27T12:20:01.260Z,9.02
2023-04-27T12:21:03.814Z,9.04
2023-04-27T12:22:06.666Z,9.07
2023-04-27T12:23:08.917Z,9.09
2023-04-27T12:24:11.102Z,9.14
2023-04-27T12:25:13.680Z,9.15
2023-04-27T12:26:16.163Z,9.14
2023-04-27T12:27:18.216Z,9.14
2023-04-27T12:28:20.161Z,9.18
2023-04-27T12:29:22.356Z,9.16
2023-04-27T12:30:24.954Z,9.16
2023-04-27T12:31:27.954Z,9.14
2023-04-27T12:32:31.075Z,9.12
2023-04-27T12:33:33.548Z,9.06
2023-04-27T12:34:35.788Z,9.04
2023-04-27T12:35:38.007Z,9.00
2023-04-27T12:36:40.512Z,8.97
2023-04-27T12:37:43.870Z,8.99
2023-04-27T12:38:46.046Z,8.98
2023-04-27T12:39:48.058Z,8.98
2023-04-27T12:40:50.775Z,9.00
2023-04-27T12:41:53.406Z,8.97
2023-04-27T12:42:55.571Z,9.00
2023-04-27T12:43:57.932Z,9.04
2023-04-27T12:45:00.044Z,9.11
2023-04-27T12:46:03.625Z,9.17
2023-04-27T12:47:06.145Z,9.25
2023-04-27T12:48:08.318Z,9.24
2023-04-27T12:49:10.645Z,9.25
2023-04-27T12:50:13.775Z,9.29
2023-04-27T12:51:15.866Z,9.31
2023-04-27T12:52:17.832Z,9.34
2023-04-27T12:53:19.914Z,9.38
2023-04-27T12:54:22.112Z,9.42
2023-04-27T12:55:33.040Z,9.37
2023-04-27T12:56:28.820Z,9.37
2023-04-27T12:57:30.882Z,9.35
2023-04-27T12:58:32.920Z,9.37
2023-04-27T12:59:35.675Z,9.39
2023-04-27T13:00:38.174Z,9.40
2023-04-27T13:01:40.514Z,9.40
2023-04-27T13:02:43.427Z,9.41
2023-04-27T13:03:47.330Z,9.44
2023-04-27T13:04:49.597Z,9.41
2023-04-27T13:05:52.191Z,9.39
2023-04-27T13:06:56.172Z,9.35
2023-04-27T13:07:58.515Z,9.31
2023-04-27T13:09:03.540Z,9.28
2023-04-27T13:10:11.290Z,9.24
2023-04-27T13:11:13.889Z,9.20
2023-04-27T13:12:15.888Z,9.19
2023-04-27T13:13:18.062Z,9.19
2023-04-27T13:14:24.772Z,9.21
2023-04-27T13:15:26.993Z,9.23
2023-04-27T13:16:29.534Z,9.27
2023-04-27T13:17:31.770Z,9.24
2023-04-27T13:18:35.230Z,9.24
2023-04-27T13:19:38.026Z,9.23
2023-04-27T13:20:41.763Z,9.22
2023-04-27T13:21:44.034Z,9.20
2023-04-27T13:25:22.756Z,9.20
2023-04-27T13:26:25.364Z,9.14
2023-04-27T13:27:27.408Z,9.08
2023-04-27T13:28:29.635Z,9.05
2023-04-27T13:29:31.781Z,9.02
2023-04-27T13:30:34.406Z,8.98
2023-04-27T13:31:36.640Z,8.93
2023-04-27T13:32:39.157Z,8.87
2023-04-27T13:33:42.781Z,8.83
2023-04-27T13:34:45.384Z,8.81
2023-04-27T13:35:47.606Z,8.80
2023-04-27T13:36:50.290Z,8.80
2023-04-27T13:37:52.718Z,8.77
2023-04-27T13:38:54.822Z,8.77
2023-04-27T13:39:56.939Z,8.78
2023-04-27T13:40:59.556Z,8.74
2023-04-27T13:42:03.436Z,8.72
2023-04-27T13:43:05.697Z,8.68
2023-04-27T13:44:07.949Z,8.65
2023-04-27T13:45:13.050Z,8.66
2023-04-27T13:46:15.467Z,8.63
2023-04-27T13:47:18.216Z,8.62
2023-04-27T13:48:21.214Z,8.63
2023-04-27T13:49:23.488Z,8.63
2023-04-27T13:50:26.004Z,8.63
2023-04-27T13:51:28.367Z,8.62
2023-04-27T13:52:30.685Z,8.62
2023-04-27T13:53:32.787Z,8.65
2023-04-27T13:54:35.006Z,8.69
2023-04-27T13:55:37.233Z,8.71
2023-04-27T13:56:40.505Z,8.69
2023-04-27T13:57:42.623Z,8.71
2023-04-27T13:58:44.736Z,8.76
2023-04-27T13:59:47.080Z,8.81
2023-04-27T14:00:50.749Z,8.81
2023-04-27T14:01:53.293Z,8.83
2023-04-27T14:02:55.922Z,8.83
2023-04-27T14:03:58.613Z,8.85
2023-04-27T14:05:01.651Z,8.85
2023-04-27T14:06:07.847Z,8.88
2023-04-27T14:07:10.148Z,8.93
2023-04-27T14:08:12.432Z,8.97
2023-04-27T14:09:15.294Z,8.97
2023-04-27T14:10:19.654Z,9.00
2023-04-27T14:11:22.001Z,9.04
2023-04-27T14:12:24.081Z,9.09
2023-04-27T14:13:26.444Z,9.14
2023-04-27T14:14:28.444Z,9.16
2023-04-27T14:15:30.742Z,9.16
2023-04-27T14:16:33.396Z,9.16
2023-04-27T14:17:35.785Z,9.16
2023-04-27T14:18:38.133Z,9.12
2023-04-27T14:19:40.619Z,9.12
2023-04-27T14:20:45.806Z,9.15
2023-04-27T14:21:49.000Z,9.18
2023-04-27T14:22:51.158Z,9.20
2023-04-27T14:23:53.407Z,9.17
2023-04-27T14:24:55.631Z,9.18
2023-04-27T14:25:57.744Z,9.21
2023-04-27T14:27:00.175Z,9.20
2023-04-27T14:28:04.370Z,9.21
2023-04-27T14:29:06.589Z,9.19
2023-04-27T14:30:12.428Z,9.19
2023-04-27T14:31:14.627Z,9.16
2023-04-27T14:32:16.850Z,9.17
2023-04-27T14:33:20.783Z,9.19
2023-04-27T14:34:22.975Z,9.16
2023-04-27T14:35:25.123Z,9.17
2023-04-27T14:36:27.617Z,9.16
2023-04-27T14:37:29.829Z,9.13
2023-04-27T14:38:32.043Z,9.11
2023-04-27T14:39:34.204Z,9.11
2023-04-27T14:40:37.063Z,9.10
2023-04-27T14:41:39.148Z,9.08
2023-04-27T14:42:41.212Z,9.06
2023-04-27T14:43:43.368Z,9.05
2023-04-27T14:44:46.783Z,9.04
2023-04-27T14:45:52.916Z,9.00
2023-04-27T14:46:54.564Z,8.99
2023-04-27T14:47:57.052Z,8.97
2023-04-27T14:49:00.376Z,8.96
2023-04-27T14:50:05.012Z,8.96
2023-04-27T14:51:07.329Z,8.95
2023-04-27T14:52:09.547Z,8.93
2023-04-27T14:53:11.771Z,8.92
2023-04-27T14:54:13.913Z,8.92
2023-04-27T14:55:17.133Z,8.90
2023-04-27T14:56:20.016Z,8.91
2023-04-27T14:57:22.310Z,8.89
2023-04-27T14:58:24.583Z,8.92
2023-04-27T14:59:26.741Z,8.93
2023-04-27T15:00:29.453Z,8.95
2023-04-27T15:01:31.666Z,8.98